Main page
METAR-TAF:

METAR-TAF

Airports :

Jersey,

Jersey Airport

latitude: 49-13N, longitude: 002-12W, elevation: 84 m

Current weather observation

The report was made 24 minutes ago, at 01:50 UTC
Wind 6 kt from the North/Northwest, varying between Northwest and North
Temperature 8°C
Humidity 76%
Pressure 1025 hPa
Visibility 10 km or more
no clouds below 1500 m and no cumulonimbus

METAR: EGJJ 170150Z AUTO 34006KT 310V010 CAVOK 08/04 Q1025

Time: 02:14 (02:14 UTC)

Forecast

The report was made 3 hours and 13 minutes ago, at 23:01 UTC
Forecast valid from 17 at 00 UTC to 17 at 09 UTC
Wind 10 kt from the North/Northwest
Visibility 10 km or more
Scattered clouds at a height of 1800 ft
Probability 30% :
Temporary
from 17 at 00 UTC to 17 at 09 UTC
Visibility: 5000 m
Broken clouds at a height of 1400 ft
rain showers

TAF: EGJJ 162301Z 1700/1709 33010KT 9999 SCT018 PROB30 TEMPO 1700/1709 5000 SHRA BKN014

Weather observations and forecasts of more than 4000 airports (METAR and TAF reports).

The available stations are represented by yellow and red dots on the map.

Hover mouse over dot to see the name of the station.

Then click to see weather observations and forecasts.

To change the map : click on the green buttons with a black cross to zoom in, on the green button with a dash to zoom out, or on the green arrows for adjacent maps.


METAR-TAF: